»·PEaware :: N42GM KSNA-KSBA

N42GM :: KSNA-KSBA

FLIGHT INFORMATION

Flight Status: Arrived
Operator: Privately registered:
United States
More flights under this callsign
Pilot: Jereme M. (20698)
Aircraft: Unknown
(DA62)
More flights by this aircraft type
Origin: KSNA John Wayne-Orange Co
United States
Destination: KSBA Santa Barbara Mun
United States
More flights between these airports :: More routes between these airports
Route: SLI V23 LAX V299 VTU VTU282R KWANG
File this flight plan on PilotEdge
Remarks: TEC route CSTP21
Altitude:
(Current/Filed)
6,000ft
Speed:
(Current/Filed)
180kts
Departed: 24-Mar-20 03:15 PM
Arrived: 24-Mar-20 03:56 PM
Distance/Time
Traveled:
108nm/0:41
Distance/Time
To Go:
Arrived

Flight Plot

Page will automatically refresh every two minutes.


Map Options




Map Legend


Flown Route
Filed Route
Departure Airport
Arrival Airport
Navaid (VOR, NDB)
Fix

Horizontal Profiles

Position Reports

Time Latitude Longitude Heading Altitude Ground
Speed
24-Mar-20 14:35 33.672567 -117.866299 298 60ft 0kts
24-Mar-20 14:36 33.672567 -117.866299 298 60ft 0kts
24-Mar-20 14:37 33.672567 -117.866299 298 60ft 0kts
24-Mar-20 14:38 33.672567 -117.866299 298 60ft 0kts
24-Mar-20 14:39 33.672567 -117.866299 298 60ft 0kts
24-Mar-20 14:40 33.672567 -117.866299 298 60ft 0kts
24-Mar-20 14:41 33.672567 -117.866299 298 60ft 0kts
24-Mar-20 14:42 33.672567 -117.866299 298 60ft 0kts
24-Mar-20 14:43 33.672567 -117.866299 298 60ft 0kts
24-Mar-20 14:44 33.672567 -117.866299 298 60ft 0kts
24-Mar-20 14:45 33.672567 -117.866299 298 60ft 0kts
24-Mar-20 14:46 33.672567 -117.866299 298 60ft 0kts
24-Mar-20 14:47 33.672567 -117.866299 298 60ft 0kts
24-Mar-20 14:48 33.672567 -117.866299 298 60ft 0kts
24-Mar-20 14:49 33.672567 -117.866299 298 60ft 0kts
24-Mar-20 14:50 33.672567 -117.866299 298 60ft 0kts
24-Mar-20 14:51 33.672567 -117.866299 298 60ft 0kts
24-Mar-20 14:52 33.672567 -117.866299 298 60ft 0kts
24-Mar-20 14:53 33.672567 -117.866299 298 60ft 0kts
24-Mar-20 14:54 33.672567 -117.866299 298 60ft 0kts
24-Mar-20 14:55 33.672567 -117.866299 298 60ft 0kts
24-Mar-20 14:56 33.672567 -117.866299 298 60ft 0kts
24-Mar-20 14:57 33.672567 -117.866299 298 60ft 0kts
24-Mar-20 14:58 33.672567 -117.866299 298 60ft 0kts
24-Mar-20 14:59 33.672567 -117.866299 298 60ft 0kts
24-Mar-20 15:00 33.672567 -117.866299 298 60ft 0kts
24-Mar-20 15:01 33.672567 -117.866299 298 60ft 0kts
24-Mar-20 15:02 33.672567 -117.866299 298 60ft 0kts
24-Mar-20 15:03 33.672567 -117.866299 298 60ft 0kts
24-Mar-20 15:04 33.672567 -117.866299 298 60ft 0kts
24-Mar-20 15:05 33.672567 -117.866299 298 60ft 0kts
24-Mar-20 15:06 33.672640 -117.866599 289 60ft 6kts
24-Mar-20 15:07 33.674934 -117.865930 27 60ft 15kts
24-Mar-20 15:08 33.679408 -117.863104 21 60ft 15kts
24-Mar-20 15:09 33.680001 -117.863704 298 60ft 0kts
24-Mar-20 15:10 33.680001 -117.863704 298 60ft 0kts
24-Mar-20 15:11 33.680001 -117.863704 298 60ft 0kts
24-Mar-20 15:12 33.680001 -117.863704 298 60ft 0kts
24-Mar-20 15:13 33.680107 -117.863925 301 60ft 6kts
24-Mar-20 15:14 33.666225 -117.875286 218 607ft 89kts
24-Mar-20 15:15 33.648292 -117.895585 219 1898ft 93kts
24-Mar-20 15:16 33.650691 -117.920922 325 3190ft 101kts
24-Mar-20 15:17 33.672617 -117.943283 314 4495ft 106kts
24-Mar-20 15:18 33.695456 -117.966643 313 5824ft 110kts
24-Mar-20 15:19 33.726570 -117.998870 311 5979ft 171kts
24-Mar-20 15:20 33.760350 -118.031933 317 5974ft 184kts
24-Mar-20 15:21 33.788961 -118.080508 285 5973ft 180kts
24-Mar-20 15:22 33.804493 -118.138164 283 5973ft 180kts
24-Mar-20 15:23 33.819270 -118.195934 283 5973ft 180kts
24-Mar-20 15:24 33.833953 -118.253789 283 5973ft 180kts
24-Mar-20 15:25 33.848649 -118.311838 283 5964ft 180kts
24-Mar-20 15:26 33.871824 -118.364895 312 5965ft 186kts
24-Mar-20 15:27 33.910110 -118.407202 315 5964ft 186kts
24-Mar-20 15:28 33.940246 -118.455884 289 5964ft 181kts
24-Mar-20 15:29 33.958828 -118.512465 288 5964ft 181kts
24-Mar-20 15:30 33.976968 -118.569179 287 5964ft 181kts
24-Mar-20 15:31 33.994984 -118.625772 287 5964ft 180kts
24-Mar-20 15:32 34.012835 -118.681973 287 5965ft 181kts
24-Mar-20 15:33 34.030846 -118.738777 287 5964ft 181kts
24-Mar-20 15:34 34.047528 -118.796494 284 5964ft 181kts
24-Mar-20 15:35 34.063050 -118.854276 284 5963ft 181kts
24-Mar-20 15:36 34.078529 -118.912163 284 5969ft 180kts
24-Mar-20 15:37 34.093999 -118.970174 284 5966ft 181kts
24-Mar-20 15:38 34.109431 -119.028213 285 5958ft 180kts
24-Mar-20 15:39 34.129639 -119.083828 294 5954ft 181kts
24-Mar-20 15:40 34.152435 -119.138372 294 5950ft 181kts
24-Mar-20 15:41 34.175335 -119.193042 294 5946ft 182kts
24-Mar-20 15:42 34.198208 -119.247727 294 5943ft 182kts
24-Mar-20 15:43 34.220989 -119.302261 294 5939ft 181kts
24-Mar-20 15:44 34.243744 -119.356865 294 5935ft 181kts
24-Mar-20 15:45 34.266522 -119.411573 294 5935ft 181kts
24-Mar-20 15:46 34.289180 -119.466050 294 5603ft 178kts
24-Mar-20 15:47 34.310916 -119.518893 293 4689ft 172kts
24-Mar-20 15:48 34.331167 -119.571005 293 3947ft 168kts
24-Mar-20 15:49 34.351293 -119.622835 293 3631ft 173kts
24-Mar-20 15:50 34.371371 -119.674735 292 2757ft 167kts
24-Mar-20 15:51 34.390142 -119.725712 292 1883ft 163kts
24-Mar-20 15:52 34.407432 -119.770829 294 1109ft 133kts
24-Mar-20 15:53 34.420652 -119.804112 296 575ft 97kts
24-Mar-20 15:54 34.427928 -119.833626 268 63ft 87kts
24-Mar-20 15:55 34.428356 -119.845833 61 17ft 0kts
24-Mar-20 15:56 34.429276 -119.845034 24 17ft 5kts
24-Mar-20 15:57 34.429306 -119.845017 27 17ft 0kts
24-Mar-20 15:58 34.429306 -119.845017 27 17ft 0kts
24-Mar-20 15:59 34.429306 -119.845017 27 17ft 0kts
24-Mar-20 16:00 34.429306 -119.845017 27 17ft 0kts
24-Mar-20 16:01 34.429306 -119.845017 27 17ft 0kts
24-Mar-20 16:02 34.429306 -119.845017 27 17ft 0kts

Navigation Log

Ident Type
Flight plan parsing failed, navigation log unavailable